sensor_id;sensor_type;location;lat;lon;timestamp;temperature;humidity
22779;DHT22;11556;51.194;3.800;2022-09-29T00:00:44;10.10;99.90
22779;DHT22;11556;51.194;3.800;2022-09-29T00:03:09;10.00;99.90
22779;DHT22;11556;51.194;3.800;2022-09-29T00:05:35;10.00;99.90
22779;DHT22;11556;51.194;3.800;2022-09-29T00:08:01;10.00;99.90
22779;DHT22;11556;51.194;3.800;2022-09-29T00:10:26;10.10;99.90
22779;DHT22;11556;51.194;3.800;2022-09-29T00:12:52;10.00;99.90
22779;DHT22;11556;51.194;3.800;2022-09-29T00:15:17;9.90;99.90
22779;DHT22;11556;51.194;3.800;2022-09-29T00:17:43;9.80;99.90
22779;DHT22;11556;51.194;3.800;2022-09-29T00:20:09;9.80;99.90
22779;DHT22;11556;51.194;3.800;2022-09-29T00:22:34;9.90;99.90
22779;DHT22;11556;51.194;3.800;2022-09-29T00:25:00;9.80;99.90
22779;DHT22;11556;51.194;3.800;2022-09-29T00:27:26;9.80;99.90
22779;DHT22;11556;51.194;3.800;2022-09-29T00:29:51;9.80;99.90
22779;DHT22;11556;51.194;3.800;2022-09-29T00:32:17;9.80;99.90
22779;DHT22;11556;51.194;3.800;2022-09-29T00:34:42;9.80;99.90
22779;DHT22;11556;51.194;3.800;2022-09-29T00:37:08;9.80;99.90
22779;DHT22;11556;51.194;3.800;2022-09-29T00:39:34;9.70;99.90
22779;DHT22;11556;51.194;3.800;2022-09-29T00:42:00;9.70;99.90
22779;DHT22;11556;51.194;3.800;2022-09-29T00:44:55;9.70;99.90
22779;DHT22;11556;51.194;3.800;2022-09-29T00:47:22;9.80;99.90
22779;DHT22;11556;51.194;3.800;2022-09-29T00:50:24;9.90;99.90
22779;DHT22;11556;51.194;3.800;2022-09-29T00:52:54;9.90;99.90
22779;DHT22;11556;51.194;3.800;2022-09-29T00:55:35;9.90;99.90
22779;DHT22;11556;51.194;3.800;2022-09-29T00:58:05;9.80;99.90
22779;DHT22;11556;51.194;3.800;2022-09-29T01:00:33;9.80;99.90
22779;DHT22;11556;51.194;3.800;2022-09-29T01:03:12;9.70;99.90
22779;DHT22;11556;51.194;3.800;2022-09-29T01:05:46;9.80;99.90
22779;DHT22;11556;51.194;3.800;2022-09-29T01:08:22;9.70;99.90
22779;DHT22;11556;51.194;3.800;2022-09-29T01:10:50;9.70;99.90
22779;DHT22;11556;51.194;3.800;2022-09-29T01:13:17;9.70;99.90
22779;DHT22;11556;51.194;3.800;2022-09-29T01:15:43;9.70;99.90
22779;DHT22;11556;51.194;3.800;2022-09-29T01:18:09;9.60;99.90
22779;DHT22;11556;51.194;3.800;2022-09-29T01:20:43;9.70;99.90
22779;DHT22;11556;51.194;3.800;2022-09-29T01:31:57;9.30;99.90
22779;DHT22;11556;51.194;3.800;2022-09-29T01:34:36;9.30;99.90
22779;DHT22;11556;51.194;3.800;2022-09-29T01:39:40;9.30;99.90
22779;DHT22;11556;51.194;3.800;2022-09-29T01:42:22;9.30;99.90
22779;DHT22;11556;51.194;3.800;2022-09-29T01:44:58;9.20;99.90
22779;DHT22;11556;51.194;3.800;2022-09-29T01:50:03;9.20;99.90
22779;DHT22;11556;51.194;3.800;2022-09-29T01:52:33;9.20;99.90
22779;DHT22;11556;51.194;3.800;2022-09-29T01:55:07;9.20;99.90
22779;DHT22;11556;51.194;3.800;2022-09-29T01:57:41;9.10;99.90
22779;DHT22;11556;51.194;3.800;2022-09-29T02:00:12;9.10;99.90
22779;DHT22;11556;51.194;3.800;2022-09-29T02:03:03;9.10;99.90
22779;DHT22;11556;51.194;3.800;2022-09-29T02:05:52;9.20;99.90
22779;DHT22;11556;51.194;3.800;2022-09-29T02:08:32;9.20;99.90
22779;DHT22;11556;51.194;3.800;2022-09-29T02:11:02;9.20;99.90
22779;DHT22;11556;51.194;3.800;2022-09-29T02:16:04;9.20;99.90
22779;DHT22;11556;51.194;3.800;2022-09-29T02:18:36;9.10;99.90
22779;DHT22;11556;51.194;3.800;2022-09-29T02:21:05;9.10;99.90
22779;DHT22;11556;51.194;3.800;2022-09-29T02:23:30;9.20;99.90
22779;DHT22;11556;51.194;3.800;2022-09-29T02:25:57;9.20;99.90
22779;DHT22;11556;51.194;3.800;2022-09-29T02:28:24;9.20;99.90
22779;DHT22;11556;51.194;3.800;2022-09-29T02:30:50;9.20;99.90
22779;DHT22;11556;51.194;3.800;2022-09-29T02:33:21;9.20;99.90
22779;DHT22;11556;51.194;3.800;2022-09-29T02:38:46;9.20;99.90
22779;DHT22;11556;51.194;3.800;2022-09-29T02:41:20;9.30;99.90
22779;DHT22;11556;51.194;3.800;2022-09-29T02:49:39;9.20;99.90
22779;DHT22;11556;51.194;3.800;2022-09-29T03:00:09;9.30;99.90
22779;DHT22;11556;51.194;3.800;2022-09-29T03:02:39;9.40;99.90
22779;DHT22;11556;51.194;3.800;2022-09-29T03:05:09;9.50;99.90
22779;DHT22;11556;51.194;3.800;2022-09-29T03:07:36;9.60;99.90
22779;DHT22;11556;51.194;3.800;2022-09-29T03:10:03;9.70;99.90
22779;DHT22;11556;51.194;3.800;2022-09-29T03:12:29;9.70;99.90
22779;DHT22;11556;51.194;3.800;2022-09-29T03:14:55;9.70;99.90
22779;DHT22;11556;51.194;3.800;2022-09-29T03:17:20;9.70;99.90
22779;DHT22;11556;51.194;3.800;2022-09-29T03:19:46;9.60;99.90
22779;DHT22;11556;51.194;3.800;2022-09-29T03:22:12;9.60;99.90
22779;DHT22;11556;51.194;3.800;2022-09-29T03:24:38;9.60;99.90
22779;DHT22;11556;51.194;3.800;2022-09-29T03:27:04;9.60;99.90
22779;DHT22;11556;51.194;3.800;2022-09-29T03:29:30;9.60;99.90
22779;DHT22;11556;51.194;3.800;2022-09-29T03:31:57;9.70;99.90
22779;DHT22;11556;51.194;3.800;2022-09-29T03:34:23;9.60;99.90
22779;DHT22;11556;51.194;3.800;2022-09-29T03:36:48;9.50;99.90
22779;DHT22;11556;51.194;3.800;2022-09-29T03:39:14;9.60;99.90
22779;DHT22;11556;51.194;3.800;2022-09-29T03:41:40;9.60;99.90
22779;DHT22;11556;51.194;3.800;2022-09-29T03:44:05;9.60;99.90
22779;DHT22;11556;51.194;3.800;2022-09-29T03:46:31;9.60;99.90
22779;DHT22;11556;51.194;3.800;2022-09-29T03:48:56;9.70;99.90
22779;DHT22;11556;51.194;3.800;2022-09-29T03:51:22;9.60;99.90
22779;DHT22;11556;51.194;3.800;2022-09-29T03:53:47;9.70;99.90
22779;DHT22;11556;51.194;3.800;2022-09-29T03:56:13;9.70;99.90
22779;DHT22;11556;51.194;3.800;2022-09-29T03:58:39;9.70;99.90
22779;DHT22;11556;51.194;3.800;2022-09-29T04:01:05;9.80;99.90
22779;DHT22;11556;51.194;3.800;2022-09-29T04:03:31;9.80;99.90
22779;DHT22;11556;51.194;3.800;2022-09-29T04:05:57;9.90;99.90
22779;DHT22;11556;51.194;3.800;2022-09-29T04:08:23;9.90;99.90
22779;DHT22;11556;51.194;3.800;2022-09-29T04:10:49;10.00;99.90
22779;DHT22;11556;51.194;3.800;2022-09-29T04:13:15;10.20;99.90
22779;DHT22;11556;51.194;3.800;2022-09-29T04:15:40;10.10;99.90
22779;DHT22;11556;51.194;3.800;2022-09-29T04:18:06;9.90;99.90
22779;DHT22;11556;51.194;3.800;2022-09-29T04:20:32;9.80;99.90
22779;DHT22;11556;51.194;3.800;2022-09-29T04:22:58;9.70;99.90
22779;DHT22;11556;51.194;3.800;2022-09-29T04:25:25;9.70;99.90
22779;DHT22;11556;51.194;3.800;2022-09-29T04:27:51;9.60;99.90
22779;DHT22;11556;51.194;3.800;2022-09-29T04:30:16;9.50;99.90
22779;DHT22;11556;51.194;3.800;2022-09-29T04:32:42;9.50;99.90
22779;DHT22;11556;51.194;3.800;2022-09-29T04:35:08;9.40;99.90
22779;DHT22;11556;51.194;3.800;2022-09-29T04:37:34;9.40;99.90
22779;DHT22;11556;51.194;3.800;2022-09-29T04:40:00;9.50;99.90
22779;DHT22;11556;51.194;3.800;2022-09-29T04:42:26;9.50;99.90
22779;DHT22;11556;51.194;3.800;2022-09-29T04:44:52;9.60;99.90
22779;DHT22;11556;51.194;3.800;2022-09-29T04:47:17;9.40;99.90
22779;DHT22;11556;51.194;3.800;2022-09-29T04:49:43;9.30;99.90
22779;DHT22;11556;51.194;3.800;2022-09-29T04:52:11;9.20;99.90
22779;DHT22;11556;51.194;3.800;2022-09-29T04:54:36;9.20;99.90
22779;DHT22;11556;51.194;3.800;2022-09-29T04:57:02;9.20;99.90
22779;DHT22;11556;51.194;3.800;2022-09-29T04:59:28;9.10;99.90
22779;DHT22;11556;51.194;3.800;2022-09-29T05:01:53;9.00;99.90
22779;DHT22;11556;51.194;3.800;2022-09-29T05:04:19;9.10;99.90
22779;DHT22;11556;51.194;3.800;2022-09-29T05:06:45;9.00;99.90
22779;DHT22;11556;51.194;3.800;2022-09-29T05:09:12;9.00;99.90
22779;DHT22;11556;51.194;3.800;2022-09-29T05:11:37;9.00;99.90
22779;DHT22;11556;51.194;3.800;2022-09-29T05:14:03;9.00;99.90
22779;DHT22;11556;51.194;3.800;2022-09-29T05:16:29;8.90;99.90
22779;DHT22;11556;51.194;3.800;2022-09-29T05:18:54;8.90;99.90
22779;DHT22;11556;51.194;3.800;2022-09-29T05:21:20;8.90;99.90
22779;DHT22;11556;51.194;3.800;2022-09-29T05:23:45;8.90;99.90
22779;DHT22;11556;51.194;3.800;2022-09-29T05:26:12;8.90;99.90
22779;DHT22;11556;51.194;3.800;2022-09-29T05:28:41;9.00;99.90
22779;DHT22;11556;51.194;3.800;2022-09-29T05:31:08;9.00;99.90
22779;DHT22;11556;51.194;3.800;2022-09-29T05:33:34;8.90;99.90
22779;DHT22;11556;51.194;3.800;2022-09-29T05:36:03;8.90;99.90
22779;DHT22;11556;51.194;3.800;2022-09-29T05:38:29;8.90;99.90
22779;DHT22;11556;51.194;3.800;2022-09-29T05:40:55;8.90;99.90
22779;DHT22;11556;51.194;3.800;2022-09-29T05:43:20;9.00;99.90
22779;DHT22;11556;51.194;3.800;2022-09-29T05:45:46;8.90;99.90
22779;DHT22;11556;51.194;3.800;2022-09-29T05:48:12;8.80;99.90
22779;DHT22;11556;51.194;3.800;2022-09-29T05:50:37;8.80;99.90
22779;DHT22;11556;51.194;3.800;2022-09-29T05:53:10;8.80;99.90
22779;DHT22;11556;51.194;3.800;2022-09-29T05:55:36;8.80;99.90
22779;DHT22;11556;51.194;3.800;2022-09-29T05:58:03;8.90;99.90
22779;DHT22;11556;51.194;3.800;2022-09-29T06:00:28;8.90;99.90
22779;DHT22;11556;51.194;3.800;2022-09-29T06:02:59;8.90;99.90
22779;DHT22;11556;51.194;3.800;2022-09-29T06:05:26;9.00;99.90
22779;DHT22;11556;51.194;3.800;2022-09-29T06:07:52;9.10;99.90
22779;DHT22;11556;51.194;3.800;2022-09-29T06:10:18;9.20;99.90
22779;DHT22;11556;51.194;3.800;2022-09-29T06:12:43;9.30;99.90
22779;DHT22;11556;51.194;3.800;2022-09-29T06:15:10;9.30;99.90
22779;DHT22;11556;51.194;3.800;2022-09-29T06:17:36;9.30;99.90
22779;DHT22;11556;51.194;3.800;2022-09-29T06:20:04;9.40;99.90
22779;DHT22;11556;51.194;3.800;2022-09-29T06:22:30;9.50;99.90
22779;DHT22;11556;51.194;3.800;2022-09-29T06:24:55;9.50;99.90
22779;DHT22;11556;51.194;3.800;2022-09-29T06:27:21;9.60;99.90
22779;DHT22;11556;51.194;3.800;2022-09-29T06:29:46;9.80;99.90
22779;DHT22;11556;51.194;3.800;2022-09-29T06:32:12;9.70;99.90
22779;DHT22;11556;51.194;3.800;2022-09-29T06:34:38;9.70;99.90
22779;DHT22;11556;51.194;3.800;2022-09-29T06:37:24;9.80;99.90
22779;DHT22;11556;51.194;3.800;2022-09-29T06:40:06;10.30;99.90
22779;DHT22;11556;51.194;3.800;2022-09-29T06:42:33;11.60;99.90
22779;DHT22;11556;51.194;3.800;2022-09-29T06:44:59;13.10;99.90
22779;DHT22;11556;51.194;3.800;2022-09-29T06:47:25;14.50;99.90
22779;DHT22;11556;51.194;3.800;2022-09-29T06:49:50;15.50;99.90
22779;DHT22;11556;51.194;3.800;2022-09-29T06:52:16;16.40;99.90
22779;DHT22;11556;51.194;3.800;2022-09-29T06:54:42;16.60;99.90
22779;DHT22;11556;51.194;3.800;2022-09-29T06:57:08;16.80;99.90
22779;DHT22;11556;51.194;3.800;2022-09-29T06:59:34;17.10;99.90
22779;DHT22;11556;51.194;3.800;2022-09-29T07:02:00;17.30;99.90
22779;DHT22;11556;51.194;3.800;2022-09-29T07:04:26;17.90;99.90
22779;DHT22;11556;51.194;3.800;2022-09-29T07:06:52;18.30;99.90
22779;DHT22;11556;51.194;3.800;2022-09-29T07:09:18;18.50;99.90
22779;DHT22;11556;51.194;3.800;2022-09-29T07:11:49;18.90;99.90
22779;DHT22;11556;51.194;3.800;2022-09-29T07:14:17;19.00;99.90
22779;DHT22;11556;51.194;3.800;2022-09-29T07:16:43;19.50;99.90
22779;DHT22;11556;51.194;3.800;2022-09-29T07:19:09;19.70;99.90
22779;DHT22;11556;51.194;3.800;2022-09-29T07:21:35;19.90;99.90
22779;DHT22;11556;51.194;3.800;2022-09-29T07:24:01;20.40;99.90
22779;DHT22;11556;51.194;3.800;2022-09-29T07:26:26;20.80;99.20
22779;DHT22;11556;51.194;3.800;2022-09-29T07:28:53;21.10;98.60
22779;DHT22;11556;51.194;3.800;2022-09-29T07:31:19;21.80;97.60
22779;DHT22;11556;51.194;3.800;2022-09-29T07:33:47;22.30;94.90
22779;DHT22;11556;51.194;3.800;2022-09-29T07:36:14;22.40;93.70
22779;DHT22;11556;51.194;3.800;2022-09-29T07:38:41;22.50;92.80
22779;DHT22;11556;51.194;3.800;2022-09-29T07:41:08;22.60;92.50
22779;DHT22;11556;51.194;3.800;2022-09-29T07:43:35;22.70;92.10
22779;DHT22;11556;51.194;3.800;2022-09-29T07:46:01;23.00;91.20
22779;DHT22;11556;51.194;3.800;2022-09-29T07:48:27;23.40;88.80
22779;DHT22;11556;51.194;3.800;2022-09-29T07:51:04;23.30;87.50
22779;DHT22;11556;51.194;3.800;2022-09-29T07:53:31;23.70;86.90
22779;DHT22;11556;51.194;3.800;2022-09-29T07:58:32;24.50;83.20
22779;DHT22;11556;51.194;3.800;2022-09-29T08:00:59;24.80;81.10
22779;DHT22;11556;51.194;3.800;2022-09-29T08:03:25;24.90;78.90
22779;DHT22;11556;51.194;3.800;2022-09-29T08:05:52;25.00;78.40
22779;DHT22;11556;51.194;3.800;2022-09-29T08:08:18;25.00;77.50
22779;DHT22;11556;51.194;3.800;2022-09-29T08:10:43;25.30;75.90
22779;DHT22;11556;51.194;3.800;2022-09-29T08:13:09;25.30;75.20
22779;DHT22;11556;51.194;3.800;2022-09-29T08:15:35;25.50;74.90
22779;DHT22;11556;51.194;3.800;2022-09-29T08:18:00;25.30;74.80
22779;DHT22;11556;51.194;3.800;2022-09-29T08:20:26;25.70;73.60
22779;DHT22;11556;51.194;3.800;2022-09-29T08:22:52;25.90;73.20
22779;DHT22;11556;51.194;3.800;2022-09-29T08:25:21;26.10;70.60
22779;DHT22;11556;51.194;3.800;2022-09-29T08:27:47;26.10;70.00
22779;DHT22;11556;51.194;3.800;2022-09-29T08:30:13;26.30;68.60
22779;DHT22;11556;51.194;3.800;2022-09-29T08:32:39;26.60;66.00
22779;DHT22;11556;51.194;3.800;2022-09-29T08:35:05;26.90;65.70
22779;DHT22;11556;51.194;3.800;2022-09-29T08:37:30;26.80;66.60
22779;DHT22;11556;51.194;3.800;2022-09-29T08:39:56;26.70;66.70
22779;DHT22;11556;51.194;3.800;2022-09-29T08:45:07;27.00;65.30
22779;DHT22;11556;51.194;3.800;2022-09-29T08:47:43;27.00;66.10
22779;DHT22;11556;51.194;3.800;2022-09-29T08:52:58;27.60;61.80
22779;DHT22;11556;51.194;3.800;2022-09-29T08:55:37;27.70;61.50
22779;DHT22;11556;51.194;3.800;2022-09-29T08:58:10;27.50;61.90
22779;DHT22;11556;51.194;3.800;2022-09-29T09:06:13;28.20;60.20
22779;DHT22;11556;51.194;3.800;2022-09-29T09:09:10;28.40;59.10
22779;DHT22;11556;51.194;3.800;2022-09-29T09:17:41;28.40;56.10
22779;DHT22;11556;51.194;3.800;2022-09-29T09:22:55;28.50;58.00
22779;DHT22;11556;51.194;3.800;2022-09-29T09:25:37;28.90;56.60
22779;DHT22;11556;51.194;3.800;2022-09-29T09:30:47;28.80;56.40
22779;DHT22;11556;51.194;3.800;2022-09-29T09:36:07;29.00;53.80
22779;DHT22;11556;51.194;3.800;2022-09-29T09:38:53;28.70;52.60
22779;DHT22;11556;51.194;3.800;2022-09-29T09:41:22;28.30;54.80
22779;DHT22;11556;51.194;3.800;2022-09-29T09:43:52;28.50;55.90
22779;DHT22;11556;51.194;3.800;2022-09-29T09:49:12;28.90;53.90
22779;DHT22;11556;51.194;3.800;2022-09-29T09:52:26;29.10;54.40
22779;DHT22;11556;51.194;3.800;2022-09-29T09:54:55;29.00;53.00
22779;DHT22;11556;51.194;3.800;2022-09-29T10:00:09;28.80;53.70
22779;DHT22;11556;51.194;3.800;2022-09-29T10:02:58;28.50;53.20
22779;DHT22;11556;51.194;3.800;2022-09-29T10:05:33;28.60;54.10
22779;DHT22;11556;51.194;3.800;2022-09-29T10:08:02;28.60;54.30
22779;DHT22;11556;51.194;3.800;2022-09-29T10:10:29;28.40;56.10
22779;DHT22;11556;51.194;3.800;2022-09-29T10:15:24;28.70;53.50
22779;DHT22;11556;51.194;3.800;2022-09-29T10:18:19;28.30;55.50
22779;DHT22;11556;51.194;3.800;2022-09-29T10:20:47;28.00;54.60
22779;DHT22;11556;51.194;3.800;2022-09-29T10:23:32;27.40;55.10
22779;DHT22;11556;51.194;3.800;2022-09-29T10:26:29;26.80;56.10
22779;DHT22;11556;51.194;3.800;2022-09-29T10:29:03;25.90;59.30
22779;DHT22;11556;51.194;3.800;2022-09-29T10:31:32;26.30;60.20
22779;DHT22;11556;51.194;3.800;2022-09-29T10:34:21;27.20;58.80
22779;DHT22;11556;51.194;3.800;2022-09-29T10:41:56;27.10;56.20
22779;DHT22;11556;51.194;3.800;2022-09-29T10:44:21;26.70;56.60
22779;DHT22;11556;51.194;3.800;2022-09-29T10:46:51;26.30;54.50
22779;DHT22;11556;51.194;3.800;2022-09-29T10:49:19;25.50;57.00
22779;DHT22;11556;51.194;3.800;2022-09-29T10:54:22;26.40;58.50
22779;DHT22;11556;51.194;3.800;2022-09-29T10:56:50;27.70;55.70
22779;DHT22;11556;51.194;3.800;2022-09-29T10:59:17;29.30;54.10
22779;DHT22;11556;51.194;3.800;2022-09-29T11:01:51;30.30;52.90
22779;DHT22;11556;51.194;3.800;2022-09-29T11:04:27;30.00;52.40
22779;DHT22;11556;51.194;3.800;2022-09-29T11:06:54;28.60;52.20
22779;DHT22;11556;51.194;3.800;2022-09-29T11:17:01;24.40;62.40
22779;DHT22;11556;51.194;3.800;2022-09-29T11:19:29;23.50;64.30
22779;DHT22;11556;51.194;3.800;2022-09-29T11:30:25;21.10;80.60
22779;DHT22;11556;51.194;3.800;2022-09-29T11:48:47;25.70;57.20
22779;DHT22;11556;51.194;3.800;2022-09-29T11:51:43;27.00;55.90
22779;DHT22;11556;51.194;3.800;2022-09-29T11:57:38;29.30;54.10
22779;DHT22;11556;51.194;3.800;2022-09-29T12:00:11;29.10;50.40
22779;DHT22;11556;51.194;3.800;2022-09-29T12:05:21;29.20;50.80
22779;DHT22;11556;51.194;3.800;2022-09-29T12:10:56;30.60;53.20
22779;DHT22;11556;51.194;3.800;2022-09-29T12:13:31;31.50;51.40
22779;DHT22;11556;51.194;3.800;2022-09-29T12:16:05;31.80;51.40
22779;DHT22;11556;51.194;3.800;2022-09-29T12:18:51;31.60;52.00
22779;DHT22;11556;51.194;3.800;2022-09-29T12:21:32;31.80;53.20
22779;DHT22;11556;51.194;3.800;2022-09-29T12:24:00;31.00;53.50
22779;DHT22;11556;51.194;3.800;2022-09-29T12:26:28;29.50;51.70
22779;DHT22;11556;51.194;3.800;2022-09-29T12:31:49;26.10;58.40
22779;DHT22;11556;51.194;3.800;2022-09-29T12:45:10;20.90;85.70
22779;DHT22;11556;51.194;3.800;2022-09-29T12:50:31;21.60;91.40
22779;DHT22;11556;51.194;3.800;2022-09-29T12:55:42;22.20;83.20
22779;DHT22;11556;51.194;3.800;2022-09-29T12:58:18;22.70;81.80
22779;DHT22;11556;51.194;3.800;2022-09-29T13:00:50;22.50;83.90
22779;DHT22;11556;51.194;3.800;2022-09-29T13:04:17;22.90;85.20
22779;DHT22;11556;51.194;3.800;2022-09-29T13:09:18;22.80;86.40
22779;DHT22;11556;51.194;3.800;2022-09-29T13:12:02;22.30;84.70
22779;DHT22;11556;51.194;3.800;2022-09-29T13:23:04;20.30;92.60
22779;DHT22;11556;51.194;3.800;2022-09-29T13:28:47;19.60;94.40
22779;DHT22;11556;51.194;3.800;2022-09-29T13:31:22;19.30;96.00
22779;DHT22;11556;51.194;3.800;2022-09-29T13:33:59;19.20;96.90
22779;DHT22;11556;51.194;3.800;2022-09-29T13:36:33;19.00;98.30
22779;DHT22;11556;51.194;3.800;2022-09-29T13:39:18;18.80;98.60
22779;DHT22;11556;51.194;3.800;2022-09-29T13:41:44;18.60;99.90
22779;DHT22;11556;51.194;3.800;2022-09-29T13:46:42;18.40;99.90
22779;DHT22;11556;51.194;3.800;2022-09-29T13:54:30;18.10;99.90
22779;DHT22;11556;51.194;3.800;2022-09-29T13:59:42;18.20;99.90
22779;DHT22;11556;51.194;3.800;2022-09-29T14:04:54;18.70;99.90
22779;DHT22;11556;51.194;3.800;2022-09-29T14:10:28;19.30;99.40
22779;DHT22;11556;51.194;3.800;2022-09-29T14:13:02;19.90;98.30
22779;DHT22;11556;51.194;3.800;2022-09-29T14:15:46;20.70;95.80
22779;DHT22;11556;51.194;3.800;2022-09-29T14:21:49;23.60;84.20
22779;DHT22;11556;51.194;3.800;2022-09-29T14:32:53;24.40;74.50
22779;DHT22;11556;51.194;3.800;2022-09-29T14:35:33;24.10;75.90
22779;DHT22;11556;51.194;3.800;2022-09-29T14:41:01;25.00;75.80
22779;DHT22;11556;51.194;3.800;2022-09-29T14:43:43;26.20;71.30
22779;DHT22;11556;51.194;3.800;2022-09-29T14:55:13;28.00;61.90
22779;DHT22;11556;51.194;3.800;2022-09-29T15:03:33;25.50;66.70
22779;DHT22;11556;51.194;3.800;2022-09-29T15:06:14;24.20;69.60
22779;DHT22;11556;51.194;3.800;2022-09-29T15:08:42;23.40;74.70
22779;DHT22;11556;51.194;3.800;2022-09-29T15:11:32;22.80;78.00
22779;DHT22;11556;51.194;3.800;2022-09-29T15:14:00;22.20;81.60
22779;DHT22;11556;51.194;3.800;2022-09-29T15:16:32;21.70;86.40
22779;DHT22;11556;51.194;3.800;2022-09-29T15:27:36;20.50;93.00
22779;DHT22;11556;51.194;3.800;2022-09-29T15:30:03;20.30;93.90
22779;DHT22;11556;51.194;3.800;2022-09-29T15:32:30;20.20;94.30
22779;DHT22;11556;51.194;3.800;2022-09-29T15:35:05;20.20;93.00
22779;DHT22;11556;51.194;3.800;2022-09-29T15:37:56;20.10;93.90
22779;DHT22;11556;51.194;3.800;2022-09-29T15:40:24;20.30;92.90
22779;DHT22;11556;51.194;3.800;2022-09-29T15:42:50;20.40;93.40
22779;DHT22;11556;51.194;3.800;2022-09-29T15:45:23;20.80;92.60
22779;DHT22;11556;51.194;3.800;2022-09-29T15:47:59;21.10;91.00
22779;DHT22;11556;51.194;3.800;2022-09-29T15:50:28;21.40;91.20
22779;DHT22;11556;51.194;3.800;2022-09-29T15:53:00;21.60;90.80
22779;DHT22;11556;51.194;3.800;2022-09-29T15:55:29;21.80;89.10
22779;DHT22;11556;51.194;3.800;2022-09-29T15:57:55;21.90;90.20
22779;DHT22;11556;51.194;3.800;2022-09-29T16:03:22;21.80;90.10
22779;DHT22;11556;51.194;3.800;2022-09-29T16:05:59;21.80;86.20
22779;DHT22;11556;51.194;3.800;2022-09-29T16:08:26;21.60;89.50
22779;DHT22;11556;51.194;3.800;2022-09-29T16:10:59;21.30;90.00
22779;DHT22;11556;51.194;3.800;2022-09-29T16:13:33;21.40;89.50
22779;DHT22;11556;51.194;3.800;2022-09-29T16:16:05;21.40;90.60
22779;DHT22;11556;51.194;3.800;2022-09-29T16:18:49;21.40;90.70
22779;DHT22;11556;51.194;3.800;2022-09-29T16:21:23;21.70;89.20
22779;DHT22;11556;51.194;3.800;2022-09-29T16:24:11;21.90;89.00
22779;DHT22;11556;51.194;3.800;2022-09-29T16:26:44;22.00;86.90
22779;DHT22;11556;51.194;3.800;2022-09-29T16:31:38;21.90;90.80
22779;DHT22;11556;51.194;3.800;2022-09-29T16:39:20;21.20;93.70
22779;DHT22;11556;51.194;3.800;2022-09-29T16:41:48;21.10;92.80
22779;DHT22;11556;51.194;3.800;2022-09-29T16:44:17;20.70;92.80
22779;DHT22;11556;51.194;3.800;2022-09-29T16:49:30;19.90;95.80
22779;DHT22;11556;51.194;3.800;2022-09-29T16:52:02;19.50;96.80
22779;DHT22;11556;51.194;3.800;2022-09-29T16:54:44;19.20;96.80
22779;DHT22;11556;51.194;3.800;2022-09-29T16:57:30;18.90;97.80
22779;DHT22;11556;51.194;3.800;2022-09-29T17:00:09;18.60;99.20
22779;DHT22;11556;51.194;3.800;2022-09-29T17:02:35;18.40;99.90
22779;DHT22;11556;51.194;3.800;2022-09-29T17:05:01;18.30;99.90
22779;DHT22;11556;51.194;3.800;2022-09-29T17:07:29;18.10;99.90
22779;DHT22;11556;51.194;3.800;2022-09-29T17:09:57;17.70;99.90
22779;DHT22;11556;51.194;3.800;2022-09-29T17:12:24;17.50;99.90
22779;DHT22;11556;51.194;3.800;2022-09-29T17:14:51;17.30;99.90
22779;DHT22;11556;51.194;3.800;2022-09-29T17:17:19;17.10;99.90
22779;DHT22;11556;51.194;3.800;2022-09-29T17:19:49;16.90;99.90
22779;DHT22;11556;51.194;3.800;2022-09-29T17:24:51;16.40;99.90
22779;DHT22;11556;51.194;3.800;2022-09-29T17:27:17;16.20;99.90
22779;DHT22;11556;51.194;3.800;2022-09-29T17:30:03;16.00;99.90
22779;DHT22;11556;51.194;3.800;2022-09-29T17:32:28;15.90;99.90
22779;DHT22;11556;51.194;3.800;2022-09-29T17:34:54;15.80;99.90
22779;DHT22;11556;51.194;3.800;2022-09-29T17:37:19;15.60;99.90
22779;DHT22;11556;51.194;3.800;2022-09-29T17:39:45;15.50;99.90
22779;DHT22;11556;51.194;3.800;2022-09-29T17:42:11;15.40;99.90
22779;DHT22;11556;51.194;3.800;2022-09-29T17:44:38;15.30;99.90
22779;DHT22;11556;51.194;3.800;2022-09-29T17:47:12;15.20;99.90
22779;DHT22;11556;51.194;3.800;2022-09-29T17:49:39;15.10;99.90
22779;DHT22;11556;51.194;3.800;2022-09-29T17:52:06;15.00;99.90
22779;DHT22;11556;51.194;3.800;2022-09-29T17:54:34;15.00;99.90
22779;DHT22;11556;51.194;3.800;2022-09-29T17:57:00;14.90;99.90
22779;DHT22;11556;51.194;3.800;2022-09-29T17:59:26;14.80;99.90
22779;DHT22;11556;51.194;3.800;2022-09-29T18:01:51;14.70;99.90
22779;DHT22;11556;51.194;3.800;2022-09-29T18:04:18;14.60;99.90
22779;DHT22;11556;51.194;3.800;2022-09-29T18:06:43;14.50;99.90
22779;DHT22;11556;51.194;3.800;2022-09-29T18:09:15;14.40;99.90
22779;DHT22;11556;51.194;3.800;2022-09-29T18:11:41;14.40;99.90
22779;DHT22;11556;51.194;3.800;2022-09-29T18:14:06;14.30;99.90
22779;DHT22;11556;51.194;3.800;2022-09-29T18:16:32;14.20;99.90
22779;DHT22;11556;51.194;3.800;2022-09-29T18:18:57;14.10;99.90
22779;DHT22;11556;51.194;3.800;2022-09-29T18:21:23;14.00;99.90
22779;DHT22;11556;51.194;3.800;2022-09-29T18:23:49;13.90;99.90
22779;DHT22;11556;51.194;3.800;2022-09-29T18:26:17;13.90;99.90
22779;DHT22;11556;51.194;3.800;2022-09-29T18:28:46;13.80;99.90
22779;DHT22;11556;51.194;3.800;2022-09-29T18:33:45;13.70;99.90
22779;DHT22;11556;51.194;3.800;2022-09-29T18:36:11;13.60;99.90
22779;DHT22;11556;51.194;3.800;2022-09-29T18:38:37;13.50;99.90
22779;DHT22;11556;51.194;3.800;2022-09-29T18:41:02;13.50;99.90
22779;DHT22;11556;51.194;3.800;2022-09-29T18:43:30;13.40;99.90
22779;DHT22;11556;51.194;3.800;2022-09-29T18:45:59;13.30;99.90
22779;DHT22;11556;51.194;3.800;2022-09-29T18:48:33;13.30;99.90
22779;DHT22;11556;51.194;3.800;2022-09-29T18:51:20;13.20;99.90
22779;DHT22;11556;51.194;3.800;2022-09-29T18:53:51;13.10;99.90
22779;DHT22;11556;51.194;3.800;2022-09-29T18:56:17;13.00;99.90
22779;DHT22;11556;51.194;3.800;2022-09-29T18:58:42;12.90;99.90
22779;DHT22;11556;51.194;3.800;2022-09-29T19:01:12;12.90;99.90
22779;DHT22;11556;51.194;3.800;2022-09-29T19:03:38;12.90;99.90
22779;DHT22;11556;51.194;3.800;2022-09-29T19:06:05;12.80;99.90
22779;DHT22;11556;51.194;3.800;2022-09-29T19:08:31;12.80;99.90
22779;DHT22;11556;51.194;3.800;2022-09-29T19:10:57;12.80;99.90
22779;DHT22;11556;51.194;3.800;2022-09-29T19:13:23;12.70;99.90
22779;DHT22;11556;51.194;3.800;2022-09-29T19:15:49;12.60;99.90
22779;DHT22;11556;51.194;3.800;2022-09-29T19:18:20;12.50;99.90
22779;DHT22;11556;51.194;3.800;2022-09-29T19:20:58;12.50;99.90
22779;DHT22;11556;51.194;3.800;2022-09-29T19:23:25;12.40;99.90
22779;DHT22;11556;51.194;3.800;2022-09-29T19:25:52;12.30;99.90
22779;DHT22;11556;51.194;3.800;2022-09-29T19:28:20;12.30;99.90
22779;DHT22;11556;51.194;3.800;2022-09-29T19:30:46;12.30;99.90
22779;DHT22;11556;51.194;3.800;2022-09-29T19:33:16;12.30;99.90
22779;DHT22;11556;51.194;3.800;2022-09-29T19:35:46;12.20;99.90
22779;DHT22;11556;51.194;3.800;2022-09-29T19:38:13;12.20;99.90